createdAt,value
2023-02-07T00:01:51.113Z,1.76
2023-02-07T00:05:51.478Z,1.69
2023-02-07T00:09:51.083Z,1.61
2023-02-07T00:13:53.503Z,1.56
2023-02-07T00:17:51.090Z,1.54
2023-02-07T00:21:51.148Z,1.55
2023-02-07T00:25:51.082Z,1.54
2023-02-07T00:29:51.345Z,1.49
2023-02-07T00:33:54.256Z,1.44
2023-02-07T00:37:51.232Z,1.41
2023-02-07T00:41:51.363Z,1.37
2023-02-07T00:45:51.263Z,1.36
2023-02-07T00:49:51.128Z,1.32
2023-02-07T00:53:52.924Z,1.27
2023-02-07T00:57:51.088Z,1.25
2023-02-07T01:01:51.195Z,1.22
2023-02-07T01:05:51.739Z,1.19
2023-02-07T01:09:51.433Z,1.12
2023-02-07T01:13:51.296Z,1.06
2023-02-07T01:17:51.924Z,1.01
2023-02-07T01:21:51.243Z,0.98
2023-02-07T01:25:51.284Z,0.94
2023-02-07T01:29:51.471Z,0.93
2023-02-07T01:33:54.126Z,0.91
2023-02-07T01:37:51.399Z,0.88
2023-02-07T01:41:51.690Z,0.87
2023-02-07T01:45:52.027Z,0.86
2023-02-07T01:49:55.070Z,0.85
2023-02-07T01:53:55.885Z,0.82
2023-02-07T01:57:52.561Z,0.81
2023-02-07T02:01:51.547Z,0.79
2023-02-07T02:05:53.279Z,0.80
2023-02-07T02:09:51.740Z,0.78
2023-02-07T02:14:01.819Z,0.76
2023-02-07T02:18:08.280Z,0.70
2023-02-07T02:22:11.005Z,0.65
2023-02-07T02:26:10.473Z,0.60
2023-02-07T02:30:11.173Z,0.57
2023-02-07T02:33:56.974Z,0.54
2023-02-07T02:37:58.263Z,0.51
2023-02-07T02:41:59.872Z,0.47
2023-02-07T02:45:56.185Z,0.45
2023-02-07T02:49:51.832Z,0.39
2023-02-07T02:53:52.220Z,0.31
2023-02-07T02:58:03.300Z,0.24
2023-02-07T03:01:59.939Z,0.18
2023-02-07T03:06:02.099Z,0.15
2023-02-07T03:10:00.374Z,0.11
2023-02-07T03:17:56.403Z,0.13
2023-02-07T03:21:54.970Z,0.16
2023-02-07T03:33:58.613Z,0.13
2023-02-07T03:37:55.354Z,0.11
2023-02-07T03:41:56.080Z,0.05
2023-02-07T03:45:51.742Z,0.03
2023-02-07T03:49:51.943Z,0.00
2023-02-07T03:53:51.598Z,-0.04
2023-02-07T03:57:51.810Z,-0.09
2023-02-07T04:01:51.640Z,-0.15
2023-02-07T04:05:51.780Z,-0.17
2023-02-07T04:09:51.671Z,-0.25
2023-02-07T04:13:51.722Z,-0.34
2023-02-07T04:17:51.687Z,-0.37
2023-02-07T04:25:51.798Z,-0.40
2023-02-07T04:29:51.827Z,-0.47
2023-02-07T04:33:51.934Z,-0.57
2023-02-07T04:37:51.744Z,-0.65
2023-02-07T04:41:51.896Z,-0.70
2023-02-07T04:45:51.932Z,-0.68
2023-02-07T04:49:51.919Z,-0.67
2023-02-07T04:57:51.874Z,-0.68
2023-02-07T05:05:53.498Z,-0.66
2023-02-07T05:09:52.607Z,-0.69
2023-02-07T05:13:52.101Z,-0.76
2023-02-07T05:17:51.889Z,-0.82
2023-02-07T05:21:52.122Z,-0.85
2023-02-07T05:25:52.001Z,-0.86
2023-02-07T05:29:52.135Z,-0.89
2023-02-07T05:33:51.865Z,-0.94
2023-02-07T05:37:52.060Z,-0.97
2023-02-07T05:41:51.982Z,-1.01
2023-02-07T05:45:52.098Z,-1.02
2023-02-07T05:49:52.089Z,-1.01
2023-02-07T05:53:51.974Z,-1.02
2023-02-07T05:57:52.382Z,-1.04
2023-02-07T06:01:52.184Z,-1.07
2023-02-07T06:05:51.993Z,-1.09
2023-02-07T06:13:52.312Z,-1.07
2023-02-07T06:17:52.236Z,-1.09
2023-02-07T06:21:52.199Z,-1.13
2023-02-07T06:25:51.996Z,-1.11
2023-02-07T06:29:52.099Z,-1.13
2023-02-07T06:33:52.183Z,-1.11
2023-02-07T06:37:54.939Z,-1.05
2023-02-07T06:41:52.042Z,-0.99
2023-02-07T06:45:52.239Z,-0.96
2023-02-07T06:49:52.135Z,-0.97
2023-02-07T06:53:52.269Z,-0.96
2023-02-07T06:57:52.055Z,-0.90
2023-02-07T07:01:52.413Z,-0.84
2023-02-07T07:05:52.292Z,-0.79
2023-02-07T07:09:52.235Z,-0.74
2023-02-07T07:13:52.254Z,-0.68
2023-02-07T07:17:52.425Z,-0.62
2023-02-07T07:21:52.178Z,-0.56
2023-02-07T07:25:52.930Z,-0.50
2023-02-07T07:29:52.201Z,-0.47
2023-02-07T07:33:52.942Z,-0.42
2023-02-07T07:37:52.232Z,-0.41
2023-02-07T07:45:53.312Z,-0.38
2023-02-07T07:49:52.303Z,-0.37
2023-02-07T07:53:52.495Z,-0.38
2023-02-07T07:57:52.447Z,-0.35
2023-02-07T08:09:52.472Z,-0.34
2023-02-07T08:13:52.397Z,-0.30
2023-02-07T08:17:52.504Z,-0.26
2023-02-07T08:21:52.379Z,-0.21
2023-02-07T08:25:52.434Z,-0.15
2023-02-07T08:29:52.415Z,-0.10
2023-02-07T08:33:52.897Z,-0.09
2023-02-07T08:37:53.007Z,-0.06
2023-02-07T08:41:52.452Z,0.02
2023-02-07T08:45:52.628Z,0.10
2023-02-07T08:49:52.559Z,0.11
2023-02-07T08:53:52.833Z,0.13
2023-02-07T08:57:52.814Z,0.18
2023-02-07T09:01:52.478Z,0.35
2023-02-07T09:05:56.443Z,0.56
2023-02-07T09:09:52.475Z,0.73
2023-02-07T09:13:52.697Z,0.87
2023-02-07T09:17:52.563Z,0.97
2023-02-07T09:21:52.651Z,1.02
2023-02-07T09:25:52.995Z,1.10
2023-02-07T09:29:52.579Z,1.15
2023-02-07T09:37:53.865Z,1.18
2023-02-07T09:42:02.979Z,1.22
2023-02-07T09:45:57.912Z,1.26
2023-02-07T09:49:56.527Z,1.27
2023-02-07T09:53:57.394Z,1.30
2023-02-07T09:57:57.433Z,1.36
2023-02-07T10:01:56.889Z,1.42
2023-02-07T10:06:03.658Z,1.43
2023-02-07T10:09:53.198Z,1.49
2023-02-07T10:14:12.166Z,1.51
2023-02-07T10:18:12.373Z,1.54
2023-02-07T10:22:02.191Z,1.56
2023-02-07T10:26:02.024Z,1.61
2023-02-07T10:29:55.923Z,1.66
2023-02-07T10:33:57.276Z,1.72
2023-02-07T10:37:56.028Z,1.77
2023-02-07T10:41:56.383Z,1.84
2023-02-07T10:46:04.607Z,1.92
2023-02-07T10:49:54.740Z,2.01
2023-02-07T10:54:02.709Z,2.11
2023-02-07T10:58:02.595Z,2.19
2023-02-07T11:01:53.828Z,2.26
2023-02-07T11:05:56.658Z,2.32
2023-02-07T11:10:12.515Z,2.41
2023-02-07T11:13:54.299Z,2.48
2023-02-07T11:17:55.928Z,2.54
2023-02-07T11:22:07.931Z,2.58
2023-02-07T11:25:54.559Z,2.61
2023-02-07T11:29:55.808Z,2.65
2023-02-07T11:33:52.976Z,2.63
2023-02-07T11:37:59.231Z,2.61
2023-02-07T11:41:57.279Z,2.70
2023-02-07T11:45:59.910Z,2.81
2023-02-07T11:49:55.910Z,2.85
2023-02-07T11:53:58.319Z,2.90
2023-02-07T11:57:56.637Z,2.94
2023-02-07T12:01:55.989Z,2.97
2023-02-07T12:05:56.481Z,3.00
2023-02-07T12:09:56.213Z,3.06
2023-02-07T12:13:56.728Z,3.11
2023-02-07T12:17:58.858Z,3.16
2023-02-07T12:21:59.592Z,3.20
2023-02-07T12:25:58.192Z,3.24
2023-02-07T12:29:59.537Z,3.30
2023-02-07T12:34:00.690Z,3.33
2023-02-07T12:38:00.872Z,3.36
2023-02-07T12:41:58.117Z,3.43
2023-02-07T12:46:03.844Z,3.51
2023-02-07T12:50:07.340Z,3.57
2023-02-07T12:54:07.452Z,3.68
2023-02-07T12:58:04.572Z,3.81
2023-02-07T13:02:06.966Z,3.91
2023-02-07T13:06:03.294Z,3.98
2023-02-07T13:10:03.022Z,4.04
2023-02-07T13:14:01.427Z,4.15
2023-02-07T13:17:59.763Z,4.24
2023-02-07T13:21:59.314Z,4.30
2023-02-07T13:25:58.130Z,4.33
2023-02-07T13:29:53.839Z,4.41
2023-02-07T13:33:53.704Z,4.46
2023-02-07T13:38:01.203Z,4.50
2023-02-07T13:42:05.608Z,4.56
2023-02-07T13:46:00.618Z,4.59
2023-02-07T13:50:00.577Z,4.66
2023-02-07T13:54:00.797Z,4.75
2023-02-07T13:58:04.476Z,4.82
2023-02-07T14:01:57.186Z,4.88
2023-02-07T14:06:13.097Z,4.94
2023-02-07T14:09:55.867Z,4.98
2023-02-07T14:14:02.812Z,5.03
2023-02-07T14:17:59.931Z,5.08
2023-02-07T14:22:12.776Z,5.13
2023-02-07T14:25:53.628Z,5.16
2023-02-07T14:29:55.630Z,5.20
2023-02-07T14:34:13.061Z,5.25
2023-02-07T14:37:55.638Z,5.31
2023-02-07T14:41:53.887Z,5.34
2023-02-07T14:46:05.960Z,5.35
2023-02-07T14:49:55.895Z,5.37
2023-02-07T14:53:59.765Z,5.43
2023-02-07T14:57:58.242Z,5.50
2023-02-07T15:01:53.501Z,5.54
2023-02-07T15:05:58.512Z,5.59
2023-02-07T15:09:53.648Z,5.62
2023-02-07T15:13:56.622Z,5.69
2023-02-07T15:17:56.855Z,5.74
2023-02-07T15:21:53.517Z,5.77
2023-02-07T15:25:53.815Z,5.82
2023-02-07T15:29:55.493Z,5.85
2023-02-07T15:33:59.508Z,5.90
2023-02-07T15:38:04.618Z,6.00
2023-02-07T15:41:55.753Z,6.10
2023-02-07T15:46:04.147Z,6.18
2023-02-07T15:49:57.956Z,6.27
2023-02-07T15:53:56.599Z,6.36
2023-02-07T15:57:54.610Z,6.44
2023-02-07T16:01:56.468Z,6.50
2023-02-07T16:06:01.049Z,6.55
2023-02-07T16:09:53.624Z,6.60
2023-02-07T16:14:00.500Z,6.73
2023-02-07T16:17:54.554Z,6.92
2023-02-07T16:22:02.123Z,7.13
2023-02-07T16:25:57.521Z,7.28
2023-02-07T16:29:55.390Z,7.41
2023-02-07T16:33:53.578Z,7.47
2023-02-07T16:37:54.076Z,7.51
2023-02-07T16:42:00.146Z,7.49
2023-02-07T16:45:54.269Z,7.33
2023-02-07T16:49:53.713Z,7.08
2023-02-07T16:53:54.016Z,6.86
2023-02-07T16:57:55.765Z,6.65
2023-02-07T17:01:53.991Z,6.47
2023-02-07T17:05:53.778Z,6.29
2023-02-07T17:09:53.861Z,6.12
2023-02-07T17:13:55.662Z,5.97
2023-02-07T17:17:56.760Z,5.80
2023-02-07T17:21:55.579Z,5.56
2023-02-07T17:25:53.917Z,5.36
2023-02-07T17:29:53.765Z,5.18
2023-02-07T17:33:55.621Z,5.02
2023-02-07T17:37:53.981Z,4.87
2023-02-07T17:41:53.895Z,4.75
2023-02-07T17:45:53.854Z,4.63
2023-02-07T17:49:53.889Z,4.53
2023-02-07T17:53:55.065Z,4.40
2023-02-07T17:57:53.940Z,4.30
2023-02-07T18:01:54.154Z,4.22
2023-02-07T18:05:56.622Z,4.15
2023-02-07T18:09:53.902Z,4.08
2023-02-07T18:13:55.864Z,4.00
2023-02-07T18:17:54.377Z,3.92
2023-02-07T18:21:54.117Z,3.84
2023-02-07T18:25:53.903Z,3.78
2023-02-07T18:29:53.896Z,3.69
2023-02-07T18:33:54.126Z,3.61
2023-02-07T18:37:53.981Z,3.50
2023-02-07T18:41:54.303Z,3.40
2023-02-07T18:45:54.180Z,3.31
2023-02-07T18:49:54.121Z,3.23
2023-02-07T18:53:54.064Z,3.17
2023-02-07T18:57:54.444Z,3.09
2023-02-07T19:01:54.058Z,3.05
2023-02-07T19:05:56.956Z,2.96
2023-02-07T19:09:54.249Z,2.92
2023-02-07T19:13:56.792Z,2.97
2023-02-07T19:17:58.717Z,3.09
2023-02-07T19:21:56.241Z,3.18
2023-02-07T19:25:57.705Z,3.28
2023-02-07T19:29:54.251Z,3.33
2023-02-07T19:33:55.755Z,3.30
2023-02-07T19:41:54.470Z,3.26
2023-02-07T19:45:54.138Z,3.14
2023-02-07T19:49:54.594Z,3.02
2023-02-07T19:53:55.734Z,2.88
2023-02-07T19:57:54.330Z,2.83
2023-02-07T20:01:54.376Z,2.78
2023-02-07T20:05:54.601Z,2.72
2023-02-07T20:09:54.175Z,2.68
2023-02-07T20:14:01.639Z,2.52
2023-02-07T20:17:55.669Z,2.34
2023-02-07T20:21:54.397Z,2.24
2023-02-07T20:25:54.311Z,2.13
2023-02-07T20:29:54.590Z,2.09
2023-02-07T20:33:55.978Z,2.19
2023-02-07T20:37:54.429Z,2.34
2023-02-07T20:41:54.346Z,2.45
2023-02-07T20:46:03.459Z,2.58
2023-02-07T20:49:56.462Z,2.61
2023-02-07T20:53:56.576Z,2.60
2023-02-07T20:57:54.287Z,2.56
2023-02-07T21:01:55.543Z,2.50
2023-02-07T21:05:54.451Z,2.40
2023-02-07T21:09:54.452Z,2.29
2023-02-07T21:13:54.934Z,2.22
2023-02-07T21:17:54.672Z,2.16
2023-02-07T21:21:54.671Z,2.13
2023-02-07T21:26:02.003Z,2.10
2023-02-07T21:29:54.410Z,2.09
2023-02-07T21:33:55.946Z,2.05
2023-02-07T21:41:54.577Z,1.96
2023-02-07T21:46:01.723Z,1.89
2023-02-07T21:49:54.553Z,1.80
2023-02-07T21:53:55.978Z,1.72
2023-02-07T21:57:54.961Z,1.68
2023-02-07T22:01:54.600Z,1.60
2023-02-07T22:05:54.745Z,1.54
2023-02-07T22:09:54.550Z,1.52
2023-02-07T22:13:55.260Z,1.50
2023-02-07T22:17:54.488Z,1.46
2023-02-07T22:29:54.589Z,1.41
2023-02-07T22:37:54.709Z,1.42
2023-02-07T22:41:55.302Z,1.40
2023-02-07T22:45:54.702Z,1.39
2023-02-07T22:49:54.591Z,1.30
2023-02-07T22:53:56.759Z,1.23
2023-02-07T22:57:56.154Z,1.18
2023-02-07T23:01:54.552Z,1.11
2023-02-07T23:05:54.796Z,1.05
2023-02-07T23:09:54.661Z,1.00
2023-02-07T23:13:54.808Z,0.95
2023-02-07T23:17:55.132Z,0.93
2023-02-07T23:21:56.818Z,0.89
2023-02-07T23:25:56.865Z,0.82
2023-02-07T23:29:54.788Z,0.75
2023-02-07T23:33:54.771Z,0.70
2023-02-07T23:37:54.655Z,0.67
2023-02-07T23:41:56.995Z,0.64
2023-02-07T23:45:54.898Z,0.63
2023-02-07T23:53:55.313Z,0.61
2023-02-07T23:57:55.255Z,0.56
